createdAt,value
2018-09-19T00:01:20.022Z,15.20
2018-09-19T00:03:48.340Z,15.30
2018-09-19T00:06:16.668Z,15.40
2018-09-19T00:08:45.000Z,15.50
2018-09-19T00:11:13.301Z,15.60
2018-09-19T00:13:41.657Z,15.70
2018-09-19T00:16:09.968Z,15.70
2018-09-19T00:18:38.291Z,15.40
2018-09-19T00:21:06.595Z,15.30
2018-09-19T00:23:35.042Z,15.30
2018-09-19T00:26:03.362Z,15.40
2018-09-19T00:28:31.660Z,15.50
2018-09-19T00:31:00.000Z,15.30
2018-09-19T00:33:28.305Z,15.10
2018-09-19T00:35:56.619Z,15.00
2018-09-19T00:38:24.928Z,14.90
2018-09-19T00:40:53.259Z,15.00
2018-09-19T00:43:21.553Z,15.20
2018-09-19T00:45:49.912Z,15.20
2018-09-19T00:48:18.203Z,15.00
2018-09-19T00:50:46.516Z,15.00
2018-09-19T00:53:14.812Z,15.10
2018-09-19T00:55:43.135Z,15.10
2018-09-19T00:58:11.423Z,15.00
2018-09-19T01:00:39.741Z,14.90
2018-09-19T01:03:08.061Z,14.90
2018-09-19T01:05:36.383Z,15.00
2018-09-19T01:08:04.688Z,15.10
2018-09-19T01:10:33.044Z,15.10
2018-09-19T01:13:01.342Z,14.90
2018-09-19T01:15:29.664Z,14.90
2018-09-19T01:17:58.097Z,14.70
2018-09-19T01:20:26.415Z,14.50
2018-09-19T01:22:54.720Z,14.40
2018-09-19T01:25:23.038Z,14.20
2018-09-19T01:27:51.331Z,14.00
2018-09-19T01:30:19.645Z,14.30
2018-09-19T01:32:47.947Z,14.50
2018-09-19T01:35:16.259Z,14.80
2018-09-19T01:37:44.579Z,15.10
2018-09-19T01:40:12.897Z,15.30
2018-09-19T01:42:41.201Z,15.40
2018-09-19T01:45:09.516Z,15.60
2018-09-19T01:47:37.892Z,15.70
2018-09-19T01:50:06.181Z,15.80
2018-09-19T01:52:34.480Z,15.80
2018-09-19T01:55:02.799Z,15.70
2018-09-19T01:57:31.089Z,15.60
2018-09-19T01:59:59.452Z,15.50
2018-09-19T02:02:27.743Z,15.60
2018-09-19T02:04:56.064Z,15.60
2018-09-19T02:07:24.351Z,15.40
2018-09-19T02:09:52.671Z,15.20
2018-09-19T02:12:20.969Z,15.00
2018-09-19T02:14:49.291Z,14.70
2018-09-19T02:17:17.596Z,14.40
2018-09-19T02:19:45.917Z,14.50
2018-09-19T02:22:14.208Z,14.60
2018-09-19T02:24:42.574Z,14.70
2018-09-19T02:27:10.867Z,14.90
2018-09-19T02:29:39.183Z,14.80
2018-09-19T02:32:07.495Z,14.80
2018-09-19T02:34:35.791Z,14.80
2018-09-19T02:37:04.151Z,14.60
2018-09-19T02:39:32.451Z,14.20
2018-09-19T02:42:00.784Z,14.10
2018-09-19T02:44:29.083Z,13.90
2018-09-19T02:46:57.400Z,14.10
2018-09-19T02:49:25.699Z,14.30
2018-09-19T02:51:57.577Z,14.10
2018-09-19T02:54:27.076Z,14.00
2018-09-19T02:56:55.391Z,14.10
2018-09-19T02:59:23.684Z,14.20
2018-09-19T03:01:52.006Z,14.10
2018-09-19T03:04:20.304Z,14.00
2018-09-19T03:06:48.630Z,13.90
2018-09-19T03:09:16.935Z,14.10
2018-09-19T03:11:45.245Z,14.10
2018-09-19T03:14:13.548Z,13.90
2018-09-19T03:16:41.879Z,13.70
2018-09-19T03:19:10.183Z,13.70
2018-09-19T03:21:38.504Z,13.60
2018-09-19T03:24:07.011Z,13.80
2018-09-19T03:26:35.334Z,14.00
2018-09-19T03:29:03.628Z,13.90
2018-09-19T03:31:31.948Z,13.90
2018-09-19T03:34:00.274Z,13.80
2018-09-19T03:36:28.605Z,13.70
2018-09-19T03:38:56.934Z,13.60
2018-09-19T03:41:25.260Z,13.60
2018-09-19T03:43:53.656Z,13.70
2018-09-19T03:46:21.981Z,13.80
2018-09-19T03:48:50.306Z,14.10
2018-09-19T03:51:18.619Z,14.20
2018-09-19T03:53:46.978Z,14.20
2018-09-19T03:56:15.297Z,14.30
2018-09-19T03:58:43.596Z,14.40
2018-09-19T04:01:11.906Z,14.40
2018-09-19T04:03:40.203Z,14.30
2018-09-19T04:06:08.534Z,14.30
2018-09-19T04:08:36.827Z,14.10
2018-09-19T04:11:05.140Z,14.20
2018-09-19T04:13:33.440Z,14.30
2018-09-19T04:16:01.756Z,14.20
2018-09-19T04:18:30.054Z,14.10
2018-09-19T04:20:58.373Z,14.10
2018-09-19T04:23:26.678Z,14.00
2018-09-19T04:25:55.005Z,13.90
2018-09-19T04:28:23.299Z,13.90
2018-09-19T04:30:51.621Z,14.00
2018-09-19T04:33:19.922Z,13.70
2018-09-19T04:35:48.231Z,13.40
2018-09-19T04:38:16.556Z,13.50
2018-09-19T04:40:44.875Z,13.20
2018-09-19T04:43:13.175Z,13.20
2018-09-19T04:45:41.511Z,13.40
2018-09-19T04:48:09.832Z,13.30
2018-09-19T04:50:38.134Z,13.30
2018-09-19T04:53:06.544Z,13.20
2018-09-19T04:55:34.899Z,13.60
2018-09-19T04:58:03.231Z,14.00
2018-09-19T05:00:31.562Z,14.00
2018-09-19T05:02:59.876Z,13.70
2018-09-19T05:05:28.171Z,13.60
2018-09-19T05:07:56.503Z,13.60
2018-09-19T05:10:24.796Z,13.40
2018-09-19T05:12:53.115Z,13.20
2018-09-19T05:15:21.408Z,13.30
2018-09-19T05:17:49.731Z,13.30
2018-09-19T05:20:18.023Z,13.30
2018-09-19T05:22:46.336Z,13.20
2018-09-19T05:25:14.683Z,13.20
2018-09-19T05:27:43.104Z,13.40
2018-09-19T05:30:11.416Z,13.90
2018-09-19T05:32:39.742Z,14.20
2018-09-19T05:35:08.045Z,14.20
2018-09-19T05:37:36.378Z,14.40
2018-09-19T05:40:04.695Z,14.60
2018-09-19T05:42:33.007Z,14.50
2018-09-19T05:45:01.589Z,14.30
2018-09-19T05:47:30.224Z,14.20
2018-09-19T05:49:58.523Z,14.20
2018-09-19T05:52:27.253Z,14.10
2018-09-19T05:54:57.308Z,14.40
2018-09-19T05:57:26.019Z,14.60
2018-09-19T05:59:54.311Z,14.70
2018-09-19T06:02:22.624Z,14.80
2018-09-19T06:04:50.935Z,14.70
2018-09-19T06:07:19.262Z,14.60
2018-09-19T06:09:47.863Z,14.60
2018-09-19T06:12:16.219Z,14.70
2018-09-19T06:14:44.524Z,14.80
2018-09-19T06:17:12.886Z,14.80
2018-09-19T06:19:41.183Z,14.70
2018-09-19T06:22:09.614Z,14.80
2018-09-19T06:24:38.221Z,14.90
2018-09-19T06:27:06.607Z,14.90
2018-09-19T06:29:35.014Z,15.10
2018-09-19T06:32:03.258Z,15.30
2018-09-19T06:34:31.568Z,15.40
2018-09-19T06:37:00.019Z,15.40
2018-09-19T06:39:28.236Z,15.50
2018-09-19T06:41:56.593Z,15.60
2018-09-19T06:44:24.890Z,15.80
2018-09-19T06:46:53.297Z,16.00
2018-09-19T06:49:21.539Z,16.20
2018-09-19T06:51:49.865Z,16.30
2018-09-19T06:54:18.194Z,16.60
2018-09-19T06:56:46.507Z,16.90
2018-09-19T06:59:14.790Z,17.10
2018-09-19T07:01:43.088Z,17.30
2018-09-19T07:04:11.788Z,17.50
2018-09-19T07:06:40.086Z,17.70
2018-09-19T07:09:09.493Z,17.90
2018-09-19T07:11:37.792Z,18.00
2018-09-19T07:14:06.313Z,18.10
2018-09-19T07:16:34.632Z,18.10
2018-09-19T07:19:03.010Z,18.20
2018-09-19T07:21:31.331Z,18.30
2018-09-19T07:23:59.648Z,18.40
2018-09-19T07:26:27.945Z,18.60
2018-09-19T07:28:57.336Z,18.70
2018-09-19T07:31:25.649Z,18.80
2018-09-19T07:33:53.974Z,18.90
2018-09-19T07:36:22.308Z,19.00
2018-09-19T07:38:50.720Z,19.00
2018-09-19T07:41:19.016Z,19.00
2018-09-19T07:43:47.336Z,19.00
2018-09-19T07:46:15.639Z,19.00
2018-09-19T07:48:43.952Z,19.10
2018-09-19T07:51:12.249Z,19.10
2018-09-19T07:53:41.344Z,19.10
2018-09-19T07:56:09.633Z,19.10
2018-09-19T07:58:37.954Z,19.10
2018-09-19T08:01:06.319Z,19.00
2018-09-19T08:03:34.655Z,18.90
2018-09-19T08:06:02.951Z,18.80
2018-09-19T08:08:31.269Z,18.60
2018-09-19T08:10:59.571Z,18.60
2018-09-19T08:13:27.894Z,18.60
2018-09-19T08:15:56.195Z,18.60
2018-09-19T08:18:24.506Z,18.70
2018-09-19T08:20:52.798Z,18.80
2018-09-19T08:23:21.114Z,18.80
2018-09-19T08:25:49.409Z,18.80
2018-09-19T08:28:17.742Z,18.80
2018-09-19T08:30:46.036Z,18.90
2018-09-19T08:33:14.450Z,18.90
2018-09-19T08:35:43.844Z,19.10
2018-09-19T08:38:12.180Z,19.30
2018-09-19T08:40:40.465Z,19.40
2018-09-19T08:43:08.782Z,19.60
2018-09-19T08:45:37.084Z,19.70
2018-09-19T08:48:05.409Z,19.80
2018-09-19T08:50:33.768Z,19.80
2018-09-19T08:53:02.655Z,19.80
2018-09-19T08:55:31.126Z,19.90
2018-09-19T08:57:59.744Z,20.00
2018-09-19T09:00:28.037Z,20.10
2018-09-19T09:02:56.347Z,20.10
2018-09-19T09:05:24.714Z,20.20
2018-09-19T09:07:52.965Z,20.30
2018-09-19T09:10:21.275Z,20.40
2018-09-19T09:12:49.681Z,20.50
2018-09-19T09:15:17.996Z,20.60
2018-09-19T09:17:46.315Z,20.80
2018-09-19T09:20:14.628Z,20.90
2018-09-19T09:22:42.920Z,21.00
2018-09-19T09:25:11.311Z,21.10
2018-09-19T09:27:39.656Z,21.00
2018-09-19T09:30:07.957Z,21.00
2018-09-19T09:32:36.250Z,20.90
2018-09-19T09:35:04.620Z,20.80
2018-09-19T09:37:32.941Z,20.80
2018-09-19T09:40:01.258Z,20.60
2018-09-19T09:42:29.557Z,20.60
2018-09-19T09:44:57.866Z,20.60
2018-09-19T09:47:26.272Z,20.60
2018-09-19T09:49:54.591Z,20.70
2018-09-19T09:52:22.972Z,20.80
2018-09-19T09:54:52.136Z,20.90
2018-09-19T09:57:20.456Z,20.90
2018-09-19T09:59:48.763Z,21.00
2018-09-19T10:02:17.056Z,21.10
2018-09-19T10:04:45.375Z,21.20
2018-09-19T10:07:13.673Z,21.20
2018-09-19T10:09:41.993Z,21.30
2018-09-19T10:12:10.284Z,21.60
2018-09-19T10:14:38.591Z,21.80
2018-09-19T10:17:06.924Z,21.80
2018-09-19T10:19:35.240Z,21.90
2018-09-19T10:22:03.606Z,21.90
2018-09-19T10:24:31.916Z,22.00
2018-09-19T10:27:00.202Z,22.10
2018-09-19T10:29:28.555Z,22.20
2018-09-19T10:31:56.867Z,22.20
2018-09-19T10:34:25.171Z,22.30
2018-09-19T10:36:53.485Z,22.40
2018-09-19T10:39:21.814Z,22.40
2018-09-19T10:41:50.135Z,22.50
2018-09-19T10:44:19.009Z,22.70
2018-09-19T10:46:47.326Z,22.80
2018-09-19T10:49:15.652Z,22.80
2018-09-19T10:51:44.054Z,22.80
2018-09-19T10:54:12.461Z,22.70
2018-09-19T10:56:40.881Z,22.70
2018-09-19T10:59:09.164Z,22.80
2018-09-19T11:01:37.500Z,22.80
2018-09-19T11:04:05.896Z,22.70
2018-09-19T11:06:34.204Z,22.80
2018-09-19T11:09:02.512Z,22.80
2018-09-19T11:11:30.824Z,23.00
2018-09-19T11:13:59.117Z,23.20
2018-09-19T11:16:27.424Z,23.30
2018-09-19T11:18:55.716Z,23.50
2018-09-19T11:21:24.024Z,23.60
2018-09-19T11:23:52.316Z,23.60
2018-09-19T11:26:20.644Z,23.60
2018-09-19T11:28:48.940Z,23.50
2018-09-19T11:31:17.251Z,23.60
2018-09-19T11:33:45.569Z,23.80
2018-09-19T11:36:13.901Z,24.00
2018-09-19T11:38:42.221Z,24.00
2018-09-19T11:41:10.547Z,23.90
2018-09-19T11:43:39.096Z,23.90
2018-09-19T11:46:07.412Z,23.90
2018-09-19T11:48:35.725Z,24.10
2018-09-19T11:51:04.044Z,24.20
2018-09-19T11:53:32.360Z,24.30
2018-09-19T11:56:00.868Z,24.20
2018-09-19T11:58:30.165Z,24.50
2018-09-19T12:00:58.880Z,24.60
2018-09-19T12:03:27.664Z,24.60
2018-09-19T12:05:55.973Z,24.20
2018-09-19T12:08:24.259Z,24.30
2018-09-19T12:10:52.568Z,24.40
2018-09-19T12:13:20.861Z,24.50
2018-09-19T12:15:49.165Z,24.50
2018-09-19T12:18:17.447Z,24.50
2018-09-19T12:20:45.852Z,24.80
2018-09-19T12:23:14.140Z,24.80
2018-09-19T12:25:42.456Z,24.50
2018-09-19T12:28:10.756Z,24.60
2018-09-19T12:30:39.880Z,24.60
2018-09-19T12:33:08.185Z,24.80
2018-09-19T12:35:36.543Z,25.00
2018-09-19T12:38:04.916Z,24.90
2018-09-19T12:40:33.221Z,25.00
2018-09-19T12:43:01.512Z,24.90
2018-09-19T12:45:29.823Z,24.80
2018-09-19T12:47:58.111Z,24.70
2018-09-19T12:50:26.417Z,25.00
2018-09-19T12:52:54.704Z,25.00
2018-09-19T12:55:22.987Z,24.80
2018-09-19T12:57:51.283Z,24.90
2018-09-19T13:00:19.566Z,25.00
2018-09-19T13:02:47.891Z,24.80
2018-09-19T13:05:16.176Z,24.70
2018-09-19T13:07:44.488Z,24.90
2018-09-19T13:10:12.782Z,24.90
2018-09-19T13:12:41.096Z,24.80
2018-09-19T13:15:09.402Z,24.90
2018-09-19T13:17:37.724Z,24.90
2018-09-19T13:20:06.151Z,25.10
2018-09-19T13:22:34.456Z,25.00
2018-09-19T13:25:02.847Z,25.10
2018-09-19T13:27:31.255Z,25.50
2018-09-19T13:29:59.467Z,25.60
2018-09-19T13:32:27.815Z,25.70
2018-09-19T13:34:56.104Z,25.60
2018-09-19T13:37:24.432Z,25.20
2018-09-19T13:39:52.724Z,25.00
2018-09-19T13:42:21.040Z,25.10
2018-09-19T13:44:49.828Z,25.10
2018-09-19T13:47:18.132Z,24.90
2018-09-19T13:49:49.812Z,24.80
2018-09-19T13:52:18.120Z,25.00
2018-09-19T13:54:46.412Z,25.40
2018-09-19T13:57:14.732Z,25.40
2018-09-19T13:59:43.011Z,25.20
2018-09-19T14:02:11.320Z,24.90
2018-09-19T14:04:39.611Z,24.80
2018-09-19T14:07:07.965Z,25.00
2018-09-19T14:09:36.247Z,25.20
2018-09-19T14:12:04.583Z,25.30
2018-09-19T14:14:32.868Z,25.40
2018-09-19T14:17:01.184Z,25.50
2018-09-19T14:19:29.468Z,25.30
2018-09-19T14:21:57.785Z,25.30
2018-09-19T14:24:26.087Z,25.00
2018-09-19T14:26:54.392Z,24.80
2018-09-19T14:29:22.692Z,24.80
2018-09-19T14:31:51.099Z,24.60
2018-09-19T14:34:19.380Z,24.90
2018-09-19T14:36:47.687Z,24.80
2018-09-19T14:39:16.795Z,24.80
2018-09-19T14:41:45.291Z,24.70
2018-09-19T14:44:15.596Z,24.70
2018-09-19T14:46:44.317Z,24.70
2018-09-19T14:49:12.604Z,24.80
2018-09-19T14:51:41.031Z,24.80
2018-09-19T14:54:09.414Z,24.90
2018-09-19T14:56:37.783Z,25.00
2018-09-19T14:59:06.325Z,24.90
2018-09-19T15:01:34.640Z,24.90
2018-09-19T15:04:02.928Z,25.10
2018-09-19T15:06:31.252Z,25.20
2018-09-19T15:08:59.548Z,24.80
2018-09-19T15:11:27.832Z,24.40
2018-09-19T15:13:56.139Z,24.30
2018-09-19T15:16:24.564Z,24.20
2018-09-19T15:18:53.089Z,24.30
2018-09-19T15:21:21.420Z,24.60
2018-09-19T15:23:50.408Z,24.70
2018-09-19T15:26:19.141Z,24.60
2018-09-19T15:28:47.592Z,24.50
2018-09-19T15:31:15.887Z,24.00
2018-09-19T15:33:44.297Z,23.70
2018-09-19T15:36:12.864Z,23.30
2018-09-19T15:38:41.320Z,23.50
2018-09-19T15:41:09.608Z,23.40
2018-09-19T15:43:37.916Z,23.50
2018-09-19T15:46:06.200Z,23.70
2018-09-19T15:48:34.554Z,23.60
2018-09-19T15:51:02.815Z,23.40
2018-09-19T15:53:31.999Z,23.20
2018-09-19T15:56:01.397Z,23.20
2018-09-19T15:58:29.720Z,23.60
2018-09-19T16:00:58.013Z,23.60
2018-09-19T16:03:27.108Z,23.60
2018-09-19T16:05:55.463Z,23.60
2018-09-19T16:08:24.197Z,23.60
2018-09-19T16:10:52.590Z,23.50
2018-09-19T16:13:20.908Z,23.60
2018-09-19T16:15:49.253Z,23.50
2018-09-19T16:18:17.574Z,23.30
2018-09-19T16:20:45.868Z,23.20
2018-09-19T16:23:14.196Z,23.00
2018-09-19T16:25:42.484Z,22.90
2018-09-19T16:28:10.796Z,22.60
2018-09-19T16:30:39.086Z,22.30
2018-09-19T16:33:07.392Z,22.30
2018-09-19T16:35:35.680Z,22.10
2018-09-19T16:38:04.055Z,22.00
2018-09-19T16:40:32.312Z,21.90
2018-09-19T16:43:00.674Z,21.50
2018-09-19T16:45:28.976Z,21.30
2018-09-19T16:47:57.288Z,21.10
2018-09-19T16:50:25.644Z,20.90
2018-09-19T16:52:53.991Z,20.90
2018-09-19T16:55:22.285Z,20.60
2018-09-19T16:57:50.634Z,20.40
2018-09-19T17:00:18.916Z,20.20
2018-09-19T17:02:47.217Z,20.10
2018-09-19T17:05:15.508Z,20.20
2018-09-19T17:07:43.848Z,20.10
2018-09-19T17:10:12.166Z,19.90
2018-09-19T17:12:40.578Z,19.70
2018-09-19T17:15:08.937Z,19.50
2018-09-19T17:17:37.780Z,19.40
2018-09-19T17:20:06.455Z,19.10
2018-09-19T17:22:34.759Z,19.00
2018-09-19T17:25:03.049Z,18.80
2018-09-19T17:27:31.336Z,18.70
2018-09-19T17:29:59.645Z,18.60
2018-09-19T17:32:27.934Z,18.50
2018-09-19T17:34:56.240Z,18.40
2018-09-19T17:37:24.900Z,18.40
2018-09-19T17:39:53.190Z,18.30
2018-09-19T17:42:21.476Z,18.20
2018-09-19T17:44:49.784Z,18.20
2018-09-19T17:47:18.092Z,18.10
2018-09-19T17:49:46.466Z,18.10
2018-09-19T17:52:14.738Z,18.10
2018-09-19T17:54:43.044Z,18.00
2018-09-19T17:57:11.336Z,18.00
2018-09-19T17:59:39.643Z,18.00
2018-09-19T18:02:07.936Z,17.90
2018-09-19T18:04:36.241Z,17.90
2018-09-19T18:07:04.548Z,17.80
2018-09-19T18:09:32.884Z,17.80
2018-09-19T18:12:01.183Z,17.90
2018-09-19T18:14:29.498Z,17.80
2018-09-19T18:16:57.791Z,17.80
2018-09-19T18:19:26.105Z,17.80
2018-09-19T18:21:54.392Z,17.80
2018-09-19T18:24:22.696Z,17.80
2018-09-19T18:26:50.979Z,17.70
2018-09-19T18:29:19.293Z,17.70
2018-09-19T18:31:47.588Z,17.70
2018-09-19T18:34:16.077Z,17.80
2018-09-19T18:36:44.364Z,17.80
2018-09-19T18:39:12.688Z,17.80
2018-09-19T18:41:40.987Z,17.80
2018-09-19T18:44:09.300Z,17.80
2018-09-19T18:46:37.592Z,17.70
2018-09-19T18:49:06.889Z,17.70
2018-09-19T18:51:35.355Z,17.60
2018-09-19T18:54:03.659Z,17.50
2018-09-19T18:56:31.947Z,17.50
2018-09-19T18:59:00.280Z,17.50
2018-09-19T19:01:28.569Z,17.50
2018-09-19T19:03:56.880Z,17.40
2018-09-19T19:06:25.167Z,17.40
2018-09-19T19:08:53.547Z,17.40
2018-09-19T19:11:21.848Z,17.50
2018-09-19T19:13:50.155Z,17.50
2018-09-19T19:16:18.673Z,17.50
2018-09-19T19:18:47.057Z,17.60
2018-09-19T19:21:15.352Z,17.60
2018-09-19T19:23:43.684Z,17.50
2018-09-19T19:26:11.968Z,17.50
2018-09-19T19:28:40.272Z,17.50
2018-09-19T19:31:08.562Z,17.50
2018-09-19T19:33:36.872Z,17.50
2018-09-19T19:36:05.160Z,17.40
2018-09-19T19:38:33.468Z,17.40
2018-09-19T19:41:01.775Z,17.30
2018-09-19T19:43:30.063Z,17.30
2018-09-19T19:45:58.376Z,17.30
2018-09-19T19:48:27.203Z,17.40
2018-09-19T19:50:55.599Z,17.30
2018-09-19T19:53:23.913Z,17.30
2018-09-19T19:55:52.216Z,17.40
2018-09-19T19:58:20.547Z,17.40
2018-09-19T20:00:48.892Z,17.40
2018-09-19T20:03:17.252Z,17.40
2018-09-19T20:05:45.588Z,17.30
2018-09-19T20:08:13.875Z,17.30
2018-09-19T20:10:43.452Z,17.30
2018-09-19T20:13:11.715Z,17.30
2018-09-19T20:15:40.033Z,17.40
2018-09-19T20:18:08.324Z,17.60
2018-09-19T20:20:36.645Z,17.60
2018-09-19T20:23:04.979Z,17.60
2018-09-19T20:25:33.296Z,17.50
2018-09-19T20:28:01.592Z,17.40
2018-09-19T20:30:29.904Z,17.30
2018-09-19T20:32:58.192Z,17.20
2018-09-19T20:35:26.504Z,17.20
2018-09-19T20:37:54.820Z,17.20
2018-09-19T20:40:24.140Z,17.20
2018-09-19T20:42:52.449Z,17.20
2018-09-19T20:45:20.768Z,17.20
2018-09-19T20:47:49.056Z,17.10
2018-09-19T20:50:17.408Z,17.10
2018-09-19T20:52:45.776Z,17.10
2018-09-19T20:55:14.080Z,17.10
2018-09-19T20:57:42.364Z,17.00
2018-09-19T21:00:10.668Z,17.00
2018-09-19T21:02:38.956Z,17.00
2018-09-19T21:05:07.284Z,17.00
2018-09-19T21:07:35.612Z,17.00
2018-09-19T21:10:04.017Z,16.90
2018-09-19T21:12:32.396Z,16.90
2018-09-19T21:15:00.704Z,16.90
2018-09-19T21:17:29.016Z,16.90
2018-09-19T21:19:57.311Z,17.00
2018-09-19T21:22:25.779Z,16.90
2018-09-19T21:24:53.941Z,16.90
2018-09-19T21:27:22.252Z,16.90
2018-09-19T21:29:50.540Z,16.80
2018-09-19T21:32:18.885Z,16.80
2018-09-19T21:34:47.162Z,16.80
2018-09-19T21:37:15.497Z,16.80
2018-09-19T21:39:43.793Z,16.80
2018-09-19T21:42:12.108Z,16.80
2018-09-19T21:44:40.399Z,16.70
2018-09-19T21:47:08.724Z,16.70
2018-09-19T21:49:37.057Z,16.70
2018-09-19T21:52:05.392Z,16.70
2018-09-19T21:54:33.680Z,16.60
2018-09-19T21:57:01.984Z,16.60
2018-09-19T21:59:30.324Z,16.70
2018-09-19T22:02:00.616Z,16.70
2018-09-19T22:04:29.092Z,16.70
2018-09-19T22:06:57.509Z,16.70
2018-09-19T22:09:25.816Z,16.80
2018-09-19T22:11:54.130Z,16.80
2018-09-19T22:14:22.432Z,16.80
2018-09-19T22:16:50.756Z,16.70
2018-09-19T22:19:19.053Z,16.70
2018-09-19T22:21:47.360Z,16.70
2018-09-19T22:24:15.652Z,16.70
2018-09-19T22:26:43.960Z,16.60
2018-09-19T22:29:12.247Z,16.50
2018-09-19T22:31:40.552Z,16.50
2018-09-19T22:34:08.844Z,16.50
2018-09-19T22:36:37.160Z,16.50
2018-09-19T22:39:07.680Z,16.60
2018-09-19T22:41:36.000Z,16.60
2018-09-19T22:44:04.292Z,16.70
2018-09-19T22:46:32.598Z,16.70
2018-09-19T22:49:00.885Z,16.70
2018-09-19T22:51:29.193Z,16.70
2018-09-19T22:53:57.497Z,16.60
2018-09-19T22:56:25.807Z,16.60
2018-09-19T22:58:54.102Z,16.50
2018-09-19T23:01:22.416Z,16.60
2018-09-19T23:03:50.716Z,16.60
2018-09-19T23:06:19.029Z,16.60
2018-09-19T23:08:47.417Z,16.60
2018-09-19T23:11:15.732Z,16.60
2018-09-19T23:13:44.043Z,16.60
2018-09-19T23:16:12.344Z,16.60
2018-09-19T23:18:40.647Z,16.60
2018-09-19T23:21:08.944Z,16.60
2018-09-19T23:23:37.256Z,16.60
2018-09-19T23:26:05.576Z,16.60
2018-09-19T23:28:33.890Z,16.60
2018-09-19T23:31:02.175Z,16.50
2018-09-19T23:33:30.494Z,16.60
2018-09-19T23:35:58.784Z,16.60
2018-09-19T23:38:27.120Z,16.60
2018-09-19T23:40:55.412Z,16.60
2018-09-19T23:43:23.736Z,16.60
2018-09-19T23:45:52.028Z,16.60
2018-09-19T23:48:20.371Z,16.60
2018-09-19T23:50:48.664Z,16.50
2018-09-19T23:55:51.544Z,16.40
2018-09-19T23:58:19.847Z,16.40
